createdAt,value
2023-05-12T00:00:25.039Z,1.40
2023-05-12T00:03:27.383Z,0.68
2023-05-12T00:06:29.614Z,1.30
2023-05-12T00:09:31.673Z,1.20
2023-05-12T00:12:33.638Z,1.42
2023-05-12T00:15:37.045Z,1.30
2023-05-12T00:18:39.041Z,0.73
2023-05-12T00:21:41.599Z,1.10
2023-05-12T00:24:43.471Z,1.08
2023-05-12T00:27:45.476Z,1.08
2023-05-12T00:30:47.441Z,0.90
2023-05-12T00:33:49.458Z,1.08
2023-05-12T00:36:51.664Z,1.10
2023-05-12T00:39:53.724Z,1.40
2023-05-12T00:42:56.098Z,1.30
2023-05-12T00:45:58.237Z,0.98
2023-05-12T00:49:00.388Z,1.25
2023-05-12T00:52:03.373Z,0.90
2023-05-12T00:55:06.695Z,1.35
2023-05-12T00:58:08.681Z,0.85
2023-05-12T01:01:11.569Z,0.85
2023-05-12T01:04:14.089Z,1.30
2023-05-12T01:07:21.434Z,0.87
2023-05-12T01:10:23.783Z,1.00
2023-05-12T01:13:27.463Z,1.20
2023-05-12T01:16:33.256Z,1.00
2023-05-12T01:19:49.400Z,0.77
2023-05-12T01:22:52.491Z,1.20
2023-05-12T01:25:55.692Z,1.20
2023-05-12T01:28:57.866Z,1.10
2023-05-12T01:32:01.649Z,1.13
2023-05-12T01:35:03.816Z,0.95
2023-05-12T01:38:07.756Z,0.63
2023-05-12T01:41:13.108Z,1.38
2023-05-12T01:44:15.042Z,1.27
2023-05-12T01:47:17.137Z,1.02
2023-05-12T01:50:26.174Z,1.00
2023-05-12T01:53:28.277Z,1.50
2023-05-12T01:56:30.375Z,1.25
2023-05-12T01:59:32.336Z,1.05
2023-05-12T02:02:36.730Z,0.95
2023-05-12T02:05:38.665Z,1.02
2023-05-12T02:08:40.614Z,1.13
2023-05-12T02:11:42.647Z,1.52
2023-05-12T02:14:44.557Z,1.73
2023-05-12T02:17:46.721Z,0.98
2023-05-12T02:20:50.866Z,1.02
2023-05-12T02:23:52.792Z,1.10
2023-05-12T02:26:54.731Z,1.15
2023-05-12T02:29:56.758Z,0.90
2023-05-12T02:32:58.823Z,1.02
2023-05-12T02:36:00.891Z,0.98
2023-05-12T02:39:02.853Z,1.00
2023-05-12T02:42:05.437Z,1.00
2023-05-12T02:45:08.131Z,0.82
2023-05-12T02:48:10.225Z,0.98
2023-05-12T02:51:12.335Z,0.88
2023-05-12T02:54:14.263Z,0.90
2023-05-12T02:57:16.300Z,1.15
2023-05-12T03:00:18.447Z,0.98
2023-05-12T03:03:20.713Z,0.70
2023-05-12T03:06:22.848Z,1.20
2023-05-12T03:09:24.927Z,1.00
2023-05-12T03:12:28.770Z,1.02
2023-05-12T03:15:30.671Z,0.90
2023-05-12T03:18:32.680Z,1.00
2023-05-12T03:21:34.899Z,1.15
2023-05-12T03:24:36.981Z,1.00
2023-05-12T03:27:40.022Z,0.85
2023-05-12T03:30:42.537Z,1.25
2023-05-12T03:33:44.477Z,0.95
2023-05-12T03:36:46.726Z,1.08
2023-05-12T03:39:48.740Z,1.13
2023-05-12T03:42:50.651Z,1.00
2023-05-12T03:45:53.615Z,0.98
2023-05-12T03:48:55.545Z,1.23
2023-05-12T03:51:57.508Z,0.98
2023-05-12T03:54:59.462Z,0.90
2023-05-12T03:58:01.335Z,1.10
2023-05-12T04:01:03.671Z,1.10
2023-05-12T04:04:05.754Z,1.10
2023-05-12T04:07:07.751Z,1.17
2023-05-12T04:10:09.854Z,1.23
2023-05-12T04:13:11.779Z,1.27
2023-05-12T04:16:14.234Z,1.33
2023-05-12T04:19:16.202Z,1.05
2023-05-12T04:22:18.120Z,1.60
2023-05-12T04:25:20.134Z,1.20
2023-05-12T04:28:22.143Z,1.10
2023-05-12T04:31:24.249Z,1.10
2023-05-12T04:34:27.396Z,1.48
2023-05-12T04:37:30.090Z,1.65
2023-05-12T04:40:34.739Z,1.90
2023-05-12T04:46:43.341Z,1.40
2023-05-12T04:49:45.408Z,1.38
2023-05-12T04:52:49.532Z,1.20
2023-05-12T04:55:52.635Z,1.13
2023-05-12T04:58:54.752Z,1.25
2023-05-12T05:01:57.477Z,1.42
2023-05-12T05:04:59.685Z,1.08
2023-05-12T05:08:01.832Z,1.17
2023-05-12T05:11:03.848Z,1.10
2023-05-12T05:14:06.607Z,1.30
2023-05-12T05:17:12.220Z,1.10
2023-05-12T05:20:15.778Z,1.02
2023-05-12T05:23:18.601Z,1.33
2023-05-12T05:26:22.226Z,1.17
2023-05-12T05:29:26.732Z,1.60
2023-05-12T05:32:28.779Z,1.45
2023-05-12T05:35:31.514Z,1.30
2023-05-12T05:38:34.363Z,1.10
2023-05-12T05:41:36.522Z,1.50
2023-05-12T05:44:38.795Z,1.38
2023-05-12T05:47:42.248Z,1.60
2023-05-12T05:50:45.047Z,1.25
2023-05-12T05:53:47.102Z,1.67
2023-05-12T05:56:50.777Z,1.40
2023-05-12T05:59:52.817Z,2.05
2023-05-12T06:02:54.960Z,1.00
2023-05-12T06:05:57.443Z,1.40
2023-05-12T06:09:00.146Z,1.23
2023-05-12T06:12:02.200Z,1.20
2023-05-12T06:15:04.368Z,1.30
2023-05-12T06:18:06.404Z,1.20
2023-05-12T06:21:08.571Z,1.40
2023-05-12T06:24:10.587Z,1.13
2023-05-12T06:27:12.581Z,1.27
2023-05-12T06:30:16.167Z,1.50
2023-05-12T06:33:18.499Z,1.60
2023-05-12T06:36:20.545Z,1.17
2023-05-12T06:39:22.520Z,1.23
2023-05-12T06:42:24.448Z,1.42
2023-05-12T06:45:27.281Z,1.55
2023-05-12T06:48:29.161Z,1.20
2023-05-12T06:51:33.980Z,1.70
2023-05-12T06:54:35.932Z,1.57
2023-05-12T06:57:37.910Z,1.40
2023-05-12T07:00:39.832Z,1.33
2023-05-12T07:03:41.897Z,1.30
2023-05-12T07:06:44.536Z,1.48
2023-05-12T07:09:46.521Z,1.23
2023-05-12T07:12:48.508Z,1.48
2023-05-12T07:15:50.469Z,1.20
2023-05-12T07:18:52.528Z,1.42
2023-05-12T07:21:54.644Z,1.73
2023-05-12T07:24:56.682Z,1.80
2023-05-12T07:27:58.593Z,1.30
2023-05-12T07:31:00.525Z,1.50
2023-05-12T07:34:02.799Z,1.23
2023-05-12T07:37:06.432Z,1.25
2023-05-12T07:40:08.813Z,1.50
2023-05-12T07:43:11.512Z,1.90
2023-05-12T07:46:13.769Z,1.98
2023-05-12T07:49:15.823Z,1.70
2023-05-12T07:52:17.803Z,1.90
2023-05-12T07:55:21.565Z,1.60
2023-05-12T07:58:23.764Z,1.08
2023-05-12T08:01:25.901Z,1.65
2023-05-12T08:04:27.975Z,1.25
2023-05-12T08:07:30.386Z,1.70
2023-05-12T08:10:33.083Z,1.67
2023-05-12T08:13:36.878Z,2.10
2023-05-12T08:16:39.835Z,1.67
2023-05-12T08:19:41.972Z,1.45
2023-05-12T08:22:44.656Z,1.48
2023-05-12T08:25:48.450Z,1.80
2023-05-12T08:28:50.476Z,1.40
2023-05-12T08:31:52.550Z,1.77
2023-05-12T08:34:54.721Z,1.45
2023-05-12T08:37:58.216Z,1.50
2023-05-12T08:41:25.551Z,2.20
2023-05-12T08:44:27.984Z,2.30
2023-05-12T08:47:32.938Z,1.65
2023-05-12T08:50:36.282Z,1.42
2023-05-12T08:53:39.555Z,1.92
2023-05-12T08:59:47.778Z,1.90
2023-05-12T09:02:54.389Z,2.63
2023-05-12T09:06:00.762Z,2.08
2023-05-12T09:09:03.476Z,2.05
2023-05-12T09:12:09.877Z,1.50
2023-05-12T09:15:18.748Z,1.52
2023-05-12T09:18:21.027Z,2.17
2023-05-12T09:21:23.834Z,1.85
2023-05-12T09:24:37.142Z,1.75
2023-05-12T09:27:39.238Z,1.80
2023-05-12T09:30:42.505Z,1.75
2023-05-12T09:33:44.943Z,1.70
2023-05-12T09:36:58.902Z,1.88
2023-05-12T09:40:02.712Z,1.40
2023-05-12T09:43:08.767Z,1.53
2023-05-12T09:46:10.808Z,1.27
2023-05-12T09:49:13.079Z,1.67
2023-05-12T09:52:15.098Z,1.63
2023-05-12T09:55:17.312Z,1.42
2023-05-12T09:58:20.849Z,1.20
2023-05-12T10:01:24.438Z,1.50
2023-05-12T10:04:28.830Z,1.40
2023-05-12T10:07:31.418Z,1.42
2023-05-12T10:10:34.345Z,1.50
2023-05-12T10:13:36.693Z,1.13
2023-05-12T10:16:40.525Z,1.40
2023-05-12T10:19:43.247Z,1.60
2023-05-12T10:22:46.494Z,2.08
2023-05-12T10:25:49.754Z,1.95
2023-05-12T10:28:52.931Z,1.70
2023-05-12T10:31:56.436Z,1.55
2023-05-12T10:35:11.437Z,1.73
2023-05-12T10:38:20.010Z,1.05
2023-05-12T10:41:35.517Z,1.98
2023-05-12T10:44:51.613Z,2.50
2023-05-12T10:48:04.402Z,2.63
2023-05-12T10:51:10.451Z,2.78
2023-05-12T10:54:18.797Z,2.53
2023-05-12T10:57:21.391Z,2.83
2023-05-12T11:00:27.492Z,2.17
2023-05-12T11:03:30.577Z,1.85
2023-05-12T11:06:34.246Z,2.67
2023-05-12T11:09:47.265Z,2.20
2023-05-12T11:12:56.880Z,2.58
2023-05-12T11:15:58.909Z,2.30
2023-05-12T11:19:04.971Z,2.08
2023-05-12T11:22:12.357Z,2.13
2023-05-12T11:25:14.864Z,2.22
2023-05-12T11:28:16.850Z,2.35
2023-05-12T11:31:20.393Z,2.50
2023-05-12T11:34:24.449Z,2.13
2023-05-12T11:37:26.440Z,2.20
2023-05-12T11:40:28.429Z,2.20
2023-05-12T11:43:30.370Z,1.88
2023-05-12T11:46:32.468Z,2.57
2023-05-12T11:49:45.009Z,1.52
2023-05-12T11:52:46.929Z,1.80
2023-05-12T11:55:56.309Z,2.03
2023-05-12T11:58:58.773Z,2.15
2023-05-12T12:02:02.581Z,2.07
2023-05-12T12:05:07.194Z,2.15
2023-05-12T12:08:16.118Z,2.10
2023-05-12T12:11:19.522Z,2.15
2023-05-12T12:14:21.490Z,2.13
2023-05-12T12:17:28.744Z,1.90
2023-05-12T12:20:31.035Z,1.70
2023-05-12T12:23:43.850Z,1.90
2023-05-12T12:26:52.507Z,1.55
2023-05-12T12:29:54.558Z,2.40
2023-05-12T12:32:56.763Z,1.40
2023-05-12T12:35:58.774Z,1.42
2023-05-12T12:39:00.736Z,1.95
2023-05-12T12:42:03.172Z,1.67
2023-05-12T12:45:05.819Z,2.25
2023-05-12T12:48:09.257Z,2.17
2023-05-12T12:51:12.428Z,2.28
2023-05-12T12:54:15.215Z,2.83
2023-05-12T12:57:17.471Z,2.22
2023-05-12T13:00:20.084Z,1.83
2023-05-12T13:03:23.989Z,2.10
2023-05-12T13:06:27.234Z,2.17
2023-05-12T13:09:29.264Z,1.70
2023-05-12T13:12:31.554Z,2.28
2023-05-12T13:15:33.506Z,3.10
2023-05-12T13:18:35.714Z,2.67
2023-05-12T13:21:37.931Z,2.20
2023-05-12T13:24:39.939Z,2.47
2023-05-12T13:27:41.959Z,1.90
2023-05-12T13:30:44.287Z,2.13
2023-05-12T13:33:46.269Z,1.77
2023-05-12T13:36:48.550Z,2.42
2023-05-12T13:39:50.492Z,2.25
2023-05-12T13:42:52.426Z,2.53
2023-05-12T13:45:54.421Z,2.35
2023-05-12T13:48:56.520Z,1.97
2023-05-12T13:51:58.402Z,2.03
2023-05-12T13:55:00.532Z,2.03
2023-05-12T13:58:02.473Z,2.10
2023-05-12T14:01:05.318Z,2.20
2023-05-12T14:04:08.666Z,2.60
2023-05-12T14:07:10.612Z,1.52
2023-05-12T14:10:12.605Z,1.75
2023-05-12T14:13:14.641Z,1.95
2023-05-12T14:16:16.694Z,2.17
2023-05-12T14:19:18.717Z,1.73
2023-05-12T14:22:26.403Z,2.08
2023-05-12T14:25:30.769Z,2.05
2023-05-12T14:28:32.963Z,1.98
2023-05-12T14:31:35.213Z,2.20
2023-05-12T14:34:37.230Z,1.92
2023-05-12T14:37:39.266Z,2.50
2023-05-12T14:40:42.144Z,1.83
2023-05-12T14:43:44.112Z,1.98
2023-05-12T14:46:46.374Z,1.87
2023-05-12T14:49:49.117Z,1.73
2023-05-12T14:52:51.084Z,2.50
2023-05-12T14:55:53.346Z,2.25
2023-05-12T14:58:55.497Z,1.95
2023-05-12T15:01:57.590Z,1.60
2023-05-12T15:04:59.564Z,2.33
2023-05-12T15:08:01.553Z,2.20
2023-05-12T15:11:03.731Z,1.60
2023-05-12T15:14:05.820Z,1.70
2023-05-12T15:17:07.949Z,2.10
2023-05-12T15:20:10.468Z,1.65
2023-05-12T15:23:12.462Z,2.42
2023-05-12T15:26:31.338Z,2.37
2023-05-12T15:29:38.878Z,1.75
2023-05-12T15:32:41.290Z,2.15
2023-05-12T15:35:43.243Z,2.25
2023-05-12T15:38:47.046Z,1.98
2023-05-12T15:41:50.390Z,2.97
2023-05-12T15:44:52.777Z,2.30
2023-05-12T15:47:54.809Z,2.42
2023-05-12T15:50:56.885Z,3.03
2023-05-12T15:53:58.890Z,2.92
2023-05-12T15:57:01.662Z,3.67
2023-05-12T16:00:03.994Z,2.42
2023-05-12T16:03:14.925Z,2.83
2023-05-12T16:06:17.265Z,3.30
2023-05-12T16:09:20.434Z,3.83
2023-05-12T16:12:22.747Z,1.73
2023-05-12T16:15:24.749Z,1.83
2023-05-12T16:18:26.777Z,2.05
2023-05-12T16:21:28.814Z,2.15
2023-05-12T16:24:30.874Z,2.50
2023-05-12T16:27:33.646Z,2.00
2023-05-12T16:30:35.597Z,2.58
2023-05-12T16:33:37.930Z,2.63
2023-05-12T16:36:39.870Z,2.17
2023-05-12T16:39:42.665Z,2.72
2023-05-12T16:42:44.757Z,2.33
2023-05-12T16:45:46.779Z,2.70
2023-05-12T16:48:48.849Z,2.20
2023-05-12T16:51:50.905Z,2.85
2023-05-12T16:54:53.268Z,2.40
2023-05-12T16:57:55.416Z,2.63
2023-05-12T17:00:58.668Z,2.15
2023-05-12T17:04:00.781Z,2.33
2023-05-12T17:07:02.828Z,2.10
2023-05-12T17:10:05.228Z,2.30
2023-05-12T17:13:07.490Z,1.95
2023-05-12T17:16:09.512Z,2.20
2023-05-12T17:19:14.385Z,2.20
2023-05-12T17:22:17.240Z,2.40
2023-05-12T17:25:19.367Z,2.40
2023-05-12T17:28:22.095Z,2.35
2023-05-12T17:31:24.311Z,2.78
2023-05-12T17:34:26.466Z,2.85
2023-05-12T17:37:30.329Z,2.65
2023-05-12T17:40:32.342Z,2.70
2023-05-12T17:43:34.384Z,2.38
2023-05-12T17:46:36.583Z,2.65
2023-05-12T17:49:41.763Z,2.00
2023-05-12T17:52:44.087Z,2.50
2023-05-12T17:55:46.173Z,2.85
2023-05-12T17:58:48.154Z,2.70
2023-05-12T18:01:50.053Z,2.17
2023-05-12T18:04:52.041Z,1.40
2023-05-12T18:07:54.081Z,1.90
2023-05-12T18:10:55.989Z,2.38
2023-05-12T18:13:58.670Z,2.53
2023-05-12T18:17:00.740Z,2.83
2023-05-12T18:20:04.095Z,2.33
2023-05-12T18:23:06.215Z,3.35
2023-05-12T18:26:08.244Z,2.55
2023-05-12T18:29:10.349Z,3.38
2023-05-12T18:32:12.374Z,3.37
2023-05-12T18:35:14.361Z,2.80
2023-05-12T18:38:16.425Z,3.08
2023-05-12T18:41:18.853Z,2.88
2023-05-12T18:44:21.161Z,2.93
2023-05-12T18:47:23.252Z,2.47
2023-05-12T18:50:25.453Z,2.45
2023-05-12T18:53:27.494Z,2.10
2023-05-12T18:56:29.680Z,1.70
2023-05-12T18:59:32.629Z,1.98
2023-05-12T19:02:34.777Z,2.00
2023-05-12T19:05:37.152Z,2.13
2023-05-12T19:08:39.239Z,1.90
2023-05-12T19:11:42.495Z,1.85
2023-05-12T19:14:44.644Z,2.50
2023-05-12T19:17:47.452Z,2.35
2023-05-12T19:20:49.621Z,2.15
2023-05-12T19:23:51.650Z,2.07
2023-05-12T19:26:53.590Z,2.38
2023-05-12T19:29:55.900Z,2.88
2023-05-12T19:32:58.041Z,2.25
2023-05-12T19:36:00.343Z,2.90
2023-05-12T19:39:02.535Z,2.50
2023-05-12T19:42:04.738Z,2.40
2023-05-12T19:45:07.257Z,3.05
2023-05-12T19:48:09.657Z,2.67
2023-05-12T19:51:11.861Z,2.27
2023-05-12T19:54:14.166Z,2.13
2023-05-12T19:57:16.135Z,2.38
2023-05-12T20:00:19.393Z,2.70
2023-05-12T20:03:21.859Z,3.22
2023-05-12T20:06:25.040Z,3.03
2023-05-12T20:09:26.980Z,3.10
2023-05-12T20:12:29.056Z,2.88
2023-05-12T20:15:31.744Z,3.25
2023-05-12T20:18:33.688Z,2.67
2023-05-12T20:21:35.664Z,3.28
2023-05-12T20:24:37.705Z,2.50
2023-05-12T20:27:39.678Z,2.88
2023-05-12T20:30:41.804Z,3.23
2023-05-12T20:33:43.772Z,2.75
2023-05-12T20:36:45.845Z,2.80
2023-05-12T20:39:47.848Z,2.22
2023-05-12T20:42:49.941Z,3.13
2023-05-12T20:45:51.881Z,2.67
2023-05-12T20:48:54.718Z,2.05
2023-05-12T20:51:56.732Z,2.67
2023-05-12T20:54:59.096Z,2.53
2023-05-12T20:58:01.052Z,2.38
2023-05-12T21:01:04.210Z,2.90
2023-05-12T21:04:06.476Z,2.47
2023-05-12T21:07:08.533Z,2.40
2023-05-12T21:10:10.765Z,2.50
2023-05-12T21:13:12.679Z,2.63
2023-05-12T21:16:15.656Z,2.17
2023-05-12T21:19:17.599Z,3.10
2023-05-12T21:22:19.590Z,3.10
2023-05-12T21:25:21.726Z,2.80
2023-05-12T21:28:23.777Z,2.87
2023-05-12T21:31:25.783Z,2.55
2023-05-12T21:34:27.845Z,3.08
2023-05-12T21:37:29.784Z,2.28
2023-05-12T21:40:31.693Z,2.58
2023-05-12T21:43:33.670Z,2.93
2023-05-12T21:46:35.964Z,2.92
2023-05-12T21:49:37.897Z,3.17
2023-05-12T21:52:39.995Z,2.65
2023-05-12T21:55:42.128Z,2.73
2023-05-12T21:58:44.082Z,2.60
2023-05-12T22:01:46.114Z,2.33
2023-05-12T22:04:48.142Z,2.42
2023-05-12T22:07:50.133Z,2.42
2023-05-12T22:10:52.061Z,2.70
2023-05-12T22:13:54.038Z,2.55
2023-05-12T22:16:56.263Z,2.60
2023-05-12T22:19:58.270Z,2.67
2023-05-12T22:23:00.174Z,2.83
2023-05-12T22:26:02.096Z,3.75
2023-05-12T22:29:04.129Z,2.38
2023-05-12T22:32:06.305Z,3.25
2023-05-12T22:35:09.266Z,3.28
2023-05-12T22:38:11.272Z,2.40
2023-05-12T22:41:13.204Z,2.80
2023-05-12T22:44:15.239Z,2.72
2023-05-12T22:47:17.290Z,2.83
2023-05-12T22:50:19.617Z,2.35
2023-05-12T22:53:21.756Z,3.37
2023-05-12T22:56:23.719Z,3.90
2023-05-12T22:59:25.777Z,3.05
2023-05-12T23:02:27.742Z,3.38
2023-05-12T23:05:29.757Z,3.00
2023-05-12T23:08:31.679Z,2.70
2023-05-12T23:11:33.661Z,2.00
2023-05-12T23:14:35.620Z,2.35
2023-05-12T23:17:37.550Z,2.50
2023-05-12T23:20:39.467Z,1.98
2023-05-12T23:23:41.700Z,2.00
2023-05-12T23:26:43.694Z,2.15
2023-05-12T23:29:46.169Z,2.50
2023-05-12T23:32:50.341Z,1.88
2023-05-12T23:35:52.499Z,1.90
2023-05-12T23:38:54.674Z,2.47
2023-05-12T23:41:56.618Z,2.55
2023-05-12T23:44:58.559Z,1.92
2023-05-12T23:48:00.641Z,2.55
2023-05-12T23:51:03.012Z,2.17
2023-05-12T23:54:04.975Z,2.28
2023-05-12T23:57:06.875Z,1.95
